TimeEST,TemperatureF,Dew PointF,Humidity,Sea Level PressureIn,VisibilityMPH,Wind Direction,Wind SpeedMPH,Gust SpeedMPH,PrecipitationIn,Events,Conditions,WindDirDegrees,DateUTC
12:54 AM,33.1,25.0,72,30.28,10.0,NW,9.2,-,N/A,,Clear,310,2011-12-16 05:54:00
1:54 AM,32.0,25.0,75,30.28,10.0,NW,9.2,-,N/A,,Clear,320,2011-12-16 06:54:00
2:54 AM,30.0,25.0,82,30.30,10.0,WNW,5.8,-,N/A,,Clear,300,2011-12-16 07:54:00
5:54 AM,28.9,25.0,85,30.33,10.0,NNW,4.6,-,N/A,,Clear,330,2011-12-16 10:54:00
6:54 AM,28.0,24.1,85,30.34,10.0,Calm,Calm,-,N/A,,Clear,0,2011-12-16 11:54:00
7:54 AM,27.0,24.1,89,30.35,10.0,West,4.6,-,N/A,,Clear,280,2011-12-16 12:54:00
8:54 AM,28.9,25.0,85,30.36,10.0,NW,4.6,-,N/A,,Clear,310,2011-12-16 13:54:00
9:54 AM,30.9,26.1,82,30.40,10.0,Calm,Calm,-,N/A,,Clear,0,2011-12-16 14:54:00
10:54 AM,32.0,26.1,79,30.40,10.0,Calm,Calm,-,N/A,,Clear,0,2011-12-16 15:54:00
11:54 AM,35.1,27.0,72,30.40,10.0,Calm,Calm,-,N/A,,Clear,0,2011-12-16 16:54:00
12:54 PM,36.0,26.1,67,30.36,10.0,West,4.6,-,N/A,,Partly Cloudy,280,2011-12-16 17:54:00
1:54 PM,36.0,26.1,67,30.34,10.0,NW,8.1,-,N/A,,Mostly Cloudy,310,2011-12-16 18:54:00
3:29 PM,37.4,26.6,65,30.31,10.0,West,9.2,-,N/A,,Scattered Clouds,280,2011-12-16 20:29:00
3:54 PM,34.0,25.0,70,30.34,10.0,NW,8.1,-,N/A,,Scattered Clouds,310,2011-12-16 20:54:00
4:54 PM,35.1,25.0,67,30.33,10.0,NW,6.9,-,N/A,,Scattered Clouds,320,2011-12-16 21:54:00
5:54 PM,30.9,24.1,76,30.35,10.0,NW,5.8,-,N/A,,Clear,320,2011-12-16 22:54:00
6:54 PM,28.9,25.0,85,30.36,10.0,NW,4.6,-,N/A,,Partly Cloudy,310,2011-12-16 23:54:00
7:54 PM,30.0,25.0,82,30.38,10.0,Calm,Calm,-,N/A,,Clear,0,2011-12-17 00:54:00
8:54 PM,28.0,25.0,88,30.38,10.0,WNW,4.6,-,N/A,,Clear,300,2011-12-17 01:54:00
9:54 PM,28.0,25.0,88,30.37,10.0,WNW,3.5,-,N/A,,Clear,290,2011-12-17 02:54:00
10:54 PM,26.1,23.0,88,30.37,10.0,NW,3.5,-,N/A,,Clear,320,2011-12-17 03:54:00
11:54 PM,25.0,21.9,88,30.37,10.0,NW,3.5,-,N/A,,Clear,310,2011-12-17 04:54:00